sensor_id;sensor_type;location;lat;lon;timestamp;P1;durP1;ratioP1;P2;durP2;ratioP2
69240;SDS011;56352;55.750;13.198;2023-06-10T00:00:51;0.55;;;0.40;;
69240;SDS011;56352;55.750;13.198;2023-06-10T00:11:41;3.15;;;0.60;;
69240;SDS011;56352;55.750;13.198;2023-06-10T00:20:21;0.82;;;0.60;;
69240;SDS011;56352;55.750;13.198;2023-06-10T00:22:51;1.00;;;0.50;;
69240;SDS011;56352;55.750;13.198;2023-06-10T00:25:18;1.60;;;0.63;;
69240;SDS011;56352;55.750;13.198;2023-06-10T00:27:45;0.40;;;0.40;;
69240;SDS011;56352;55.750;13.198;2023-06-10T00:30:12;0.45;;;0.38;;
69240;SDS011;56352;55.750;13.198;2023-06-10T00:32:42;1.23;;;0.60;;
69240;SDS011;56352;55.750;13.198;2023-06-10T00:35:08;1.08;;;0.57;;
69240;SDS011;56352;55.750;13.198;2023-06-10T00:37:35;0.70;;;0.50;;
69240;SDS011;56352;55.750;13.198;2023-06-10T00:40:03;0.63;;;0.50;;
69240;SDS011;56352;55.750;13.198;2023-06-10T00:42:30;1.02;;;0.57;;
69240;SDS011;56352;55.750;13.198;2023-06-10T00:47:55;0.60;;;0.40;;
69240;SDS011;56352;55.750;13.198;2023-06-10T00:50:22;0.85;;;0.60;;
69240;SDS011;56352;55.750;13.198;2023-06-10T00:52:56;0.80;;;0.63;;
69240;SDS011;56352;55.750;13.198;2023-06-10T00:55:27;0.75;;;0.40;;
69240;SDS011;56352;55.750;13.198;2023-06-10T00:57:57;1.15;;;0.40;;
69240;SDS011;56352;55.750;13.198;2023-06-10T01:00:25;2.55;;;0.60;;
69240;SDS011;56352;55.750;13.198;2023-06-10T01:02:52;1.67;;;0.43;;
69240;SDS011;56352;55.750;13.198;2023-06-10T01:05:20;0.93;;;0.63;;
69240;SDS011;56352;55.750;13.198;2023-06-10T01:10:35;0.75;;;0.52;;
69240;SDS011;56352;55.750;13.198;2023-06-10T01:13:10;1.55;;;0.52;;
69240;SDS011;56352;55.750;13.198;2023-06-10T01:15:39;0.70;;;0.68;;
69240;SDS011;56352;55.750;13.198;2023-06-10T01:18:10;1.38;;;0.43;;
69240;SDS011;56352;55.750;13.198;2023-06-10T01:20:43;1.15;;;0.50;;
69240;SDS011;56352;55.750;13.198;2023-06-10T01:23:10;0.75;;;0.45;;
69240;SDS011;56352;55.750;13.198;2023-06-10T01:25:38;0.70;;;0.50;;
69240;SDS011;56352;55.750;13.198;2023-06-10T01:28:36;1.42;;;0.43;;
69240;SDS011;56352;55.750;13.198;2023-06-10T01:31:09;1.52;;;0.50;;
69240;SDS011;56352;55.750;13.198;2023-06-10T01:33:41;0.68;;;0.40;;
69240;SDS011;56352;55.750;13.198;2023-06-10T01:36:12;2.55;;;0.40;;
69240;SDS011;56352;55.750;13.198;2023-06-10T01:38:42;0.90;;;0.40;;
69240;SDS011;56352;55.750;13.198;2023-06-10T01:41:10;0.77;;;0.47;;
69240;SDS011;56352;55.750;13.198;2023-06-10T01:43:38;1.83;;;0.50;;
69240;SDS011;56352;55.750;13.198;2023-06-10T01:46:05;2.08;;;0.47;;
69240;SDS011;56352;55.750;13.198;2023-06-10T01:48:32;1.40;;;0.50;;
69240;SDS011;56352;55.750;13.198;2023-06-10T01:50:59;1.98;;;0.50;;
69240;SDS011;56352;55.750;13.198;2023-06-10T01:53:26;0.68;;;0.50;;
69240;SDS011;56352;55.750;13.198;2023-06-10T01:55:52;0.65;;;0.50;;
69240;SDS011;56352;55.750;13.198;2023-06-10T01:58:19;1.10;;;0.70;;
69240;SDS011;56352;55.750;13.198;2023-06-10T02:00:46;0.40;;;0.40;;
69240;SDS011;56352;55.750;13.198;2023-06-10T02:03:12;0.68;;;0.60;;
69240;SDS011;56352;55.750;13.198;2023-06-10T02:05:45;1.90;;;0.70;;
69240;SDS011;56352;55.750;13.198;2023-06-10T02:08:55;1.27;;;0.60;;
69240;SDS011;56352;55.750;13.198;2023-06-10T02:11:21;1.98;;;0.70;;
69240;SDS011;56352;55.750;13.198;2023-06-10T02:13:48;1.20;;;0.50;;
69240;SDS011;56352;55.750;13.198;2023-06-10T02:16:15;1.27;;;0.52;;
69240;SDS011;56352;55.750;13.198;2023-06-10T02:18:44;1.30;;;0.70;;
69240;SDS011;56352;55.750;13.198;2023-06-10T02:21:11;1.10;;;0.60;;
69240;SDS011;56352;55.750;13.198;2023-06-10T02:23:40;1.60;;;0.60;;
69240;SDS011;56352;55.750;13.198;2023-06-10T02:26:12;2.00;;;0.70;;
69240;SDS011;56352;55.750;13.198;2023-06-10T02:31:44;0.75;;;0.52;;
69240;SDS011;56352;55.750;13.198;2023-06-10T02:34:16;1.25;;;0.50;;
69240;SDS011;56352;55.750;13.198;2023-06-10T02:37:00;0.70;;;0.50;;
69240;SDS011;56352;55.750;13.198;2023-06-10T02:39:27;1.38;;;0.70;;
69240;SDS011;56352;55.750;13.198;2023-06-10T02:41:54;3.13;;;0.70;;
69240;SDS011;56352;55.750;13.198;2023-06-10T02:44:20;0.63;;;0.50;;
69240;SDS011;56352;55.750;13.198;2023-06-10T02:53:50;0.60;;;0.50;;
69240;SDS011;56352;55.750;13.198;2023-06-10T02:56:19;1.20;;;0.60;;
69240;SDS011;56352;55.750;13.198;2023-06-10T03:02:21;1.73;;;0.57;;
69240;SDS011;56352;55.750;13.198;2023-06-10T03:04:48;1.95;;;0.75;;
69240;SDS011;56352;55.750;13.198;2023-06-10T03:07:33;1.30;;;0.60;;
69240;SDS011;56352;55.750;13.198;2023-06-10T03:10:01;0.75;;;0.63;;
69240;SDS011;56352;55.750;13.198;2023-06-10T03:16:01;1.17;;;0.60;;
69240;SDS011;56352;55.750;13.198;2023-06-10T03:22:11;0.93;;;0.60;;
69240;SDS011;56352;55.750;13.198;2023-06-10T03:24:38;1.17;;;0.60;;
69240;SDS011;56352;55.750;13.198;2023-06-10T03:27:07;0.60;;;0.60;;
69240;SDS011;56352;55.750;13.198;2023-06-10T03:29:34;0.80;;;0.60;;
69240;SDS011;56352;55.750;13.198;2023-06-10T03:32:15;1.55;;;1.40;;
69240;SDS011;56352;55.750;13.198;2023-06-10T03:34:43;2.38;;;0.80;;
69240;SDS011;56352;55.750;13.198;2023-06-10T03:37:11;0.80;;;0.50;;
69240;SDS011;56352;55.750;13.198;2023-06-10T03:39:38;0.55;;;0.40;;
69240;SDS011;56352;55.750;13.198;2023-06-10T03:42:05;0.80;;;0.60;;
69240;SDS011;56352;55.750;13.198;2023-06-10T03:44:33;1.00;;;0.70;;
69240;SDS011;56352;55.750;13.198;2023-06-10T03:47:00;1.45;;;0.60;;
69240;SDS011;56352;55.750;13.198;2023-06-10T03:49:30;1.00;;;0.50;;
69240;SDS011;56352;55.750;13.198;2023-06-10T03:51:57;1.30;;;0.68;;
69240;SDS011;56352;55.750;13.198;2023-06-10T03:54:25;2.33;;;0.80;;
69240;SDS011;56352;55.750;13.198;2023-06-10T03:56:54;0.88;;;0.60;;
69240;SDS011;56352;55.750;13.198;2023-06-10T03:59:21;0.77;;;0.50;;
69240;SDS011;56352;55.750;13.198;2023-06-10T04:01:48;1.08;;;0.60;;
69240;SDS011;56352;55.750;13.198;2023-06-10T04:04:14;2.30;;;0.50;;
69240;SDS011;56352;55.750;13.198;2023-06-10T04:06:44;1.05;;;0.50;;
69240;SDS011;56352;55.750;13.198;2023-06-10T04:09:11;1.08;;;0.60;;
69240;SDS011;56352;55.750;13.198;2023-06-10T04:11:40;2.13;;;0.70;;
69240;SDS011;56352;55.750;13.198;2023-06-10T04:14:08;0.93;;;0.50;;
69240;SDS011;56352;55.750;13.198;2023-06-10T04:16:35;2.63;;;0.73;;
69240;SDS011;56352;55.750;13.198;2023-06-10T04:19:05;0.82;;;0.70;;
69240;SDS011;56352;55.750;13.198;2023-06-10T04:21:32;1.88;;;0.60;;
69240;SDS011;56352;55.750;13.198;2023-06-10T04:24:11;0.85;;;0.55;;
69240;SDS011;56352;55.750;13.198;2023-06-10T04:26:42;1.08;;;0.68;;
69240;SDS011;56352;55.750;13.198;2023-06-10T04:29:13;0.75;;;0.60;;
69240;SDS011;56352;55.750;13.198;2023-06-10T04:31:40;1.80;;;0.80;;
69240;SDS011;56352;55.750;13.198;2023-06-10T04:34:07;2.50;;;0.50;;
69240;SDS011;56352;55.750;13.198;2023-06-10T04:36:34;3.15;;;0.70;;
69240;SDS011;56352;55.750;13.198;2023-06-10T04:39:01;0.52;;;0.52;;
69240;SDS011;56352;55.750;13.198;2023-06-10T04:41:28;2.13;;;0.68;;
69240;SDS011;56352;55.750;13.198;2023-06-10T04:44:03;2.80;;;0.77;;
69240;SDS011;56352;55.750;13.198;2023-06-10T04:46:35;2.85;;;0.80;;
69240;SDS011;56352;55.750;13.198;2023-06-10T04:49:05;1.15;;;0.70;;
69240;SDS011;56352;55.750;13.198;2023-06-10T04:51:32;1.30;;;0.90;;
69240;SDS011;56352;55.750;13.198;2023-06-10T04:54:01;3.70;;;0.60;;
69240;SDS011;56352;55.750;13.198;2023-06-10T04:56:30;1.20;;;0.60;;
69240;SDS011;56352;55.750;13.198;2023-06-10T05:02:19;3.35;;;0.77;;
69240;SDS011;56352;55.750;13.198;2023-06-10T05:04:46;1.58;;;0.70;;
69240;SDS011;56352;55.750;13.198;2023-06-10T05:07:13;0.70;;;0.50;;
69240;SDS011;56352;55.750;13.198;2023-06-10T05:09:41;2.03;;;0.77;;
69240;SDS011;56352;55.750;13.198;2023-06-10T05:12:08;1.27;;;0.73;;
69240;SDS011;56352;55.750;13.198;2023-06-10T05:14:35;4.70;;;0.82;;
69240;SDS011;56352;55.750;13.198;2023-06-10T05:17:02;2.15;;;0.82;;
69240;SDS011;56352;55.750;13.198;2023-06-10T05:19:29;1.10;;;0.70;;
69240;SDS011;56352;55.750;13.198;2023-06-10T05:21:56;3.75;;;0.88;;
69240;SDS011;56352;55.750;13.198;2023-06-10T05:24:23;1.67;;;0.73;;
69240;SDS011;56352;55.750;13.198;2023-06-10T05:26:50;1.48;;;0.60;;
69240;SDS011;56352;55.750;13.198;2023-06-10T05:29:17;1.40;;;0.80;;
69240;SDS011;56352;55.750;13.198;2023-06-10T05:31:44;3.47;;;0.90;;
69240;SDS011;56352;55.750;13.198;2023-06-10T05:34:56;3.33;;;0.75;;
69240;SDS011;56352;55.750;13.198;2023-06-10T05:41:04;2.88;;;0.70;;
69240;SDS011;56352;55.750;13.198;2023-06-10T05:49:48;2.97;;;0.93;;
69240;SDS011;56352;55.750;13.198;2023-06-10T05:52:18;2.78;;;0.70;;
69240;SDS011;56352;55.750;13.198;2023-06-10T05:58:14;2.83;;;0.70;;
69240;SDS011;56352;55.750;13.198;2023-06-10T06:00:44;3.08;;;0.80;;
69240;SDS011;56352;55.750;13.198;2023-06-10T06:03:14;1.20;;;0.70;;
69240;SDS011;56352;55.750;13.198;2023-06-10T06:12:52;1.75;;;0.70;;
69240;SDS011;56352;55.750;13.198;2023-06-10T06:15:19;2.63;;;0.50;;
69240;SDS011;56352;55.750;13.198;2023-06-10T06:17:46;1.75;;;0.60;;
69240;SDS011;56352;55.750;13.198;2023-06-10T06:20:15;1.75;;;0.70;;
69240;SDS011;56352;55.750;13.198;2023-06-10T06:22:45;1.30;;;0.65;;
69240;SDS011;56352;55.750;13.198;2023-06-10T06:25:12;1.33;;;0.70;;
69240;SDS011;56352;55.750;13.198;2023-06-10T06:27:39;1.50;;;0.80;;
69240;SDS011;56352;55.750;13.198;2023-06-10T06:30:06;1.55;;;0.63;;
69240;SDS011;56352;55.750;13.198;2023-06-10T06:32:43;1.85;;;0.70;;
69240;SDS011;56352;55.750;13.198;2023-06-10T06:35:10;2.55;;;0.95;;
69240;SDS011;56352;55.750;13.198;2023-06-10T06:37:37;4.35;;;0.93;;
69240;SDS011;56352;55.750;13.198;2023-06-10T06:40:08;1.98;;;0.80;;
69240;SDS011;56352;55.750;13.198;2023-06-10T06:42:38;3.85;;;0.80;;
69240;SDS011;56352;55.750;13.198;2023-06-10T06:45:08;1.92;;;0.80;;
69240;SDS011;56352;55.750;13.198;2023-06-10T06:47:35;2.35;;;0.77;;
69240;SDS011;56352;55.750;13.198;2023-06-10T06:50:05;1.60;;;0.80;;
69240;SDS011;56352;55.750;13.198;2023-06-10T06:52:35;1.08;;;0.82;;
69240;SDS011;56352;55.750;13.198;2023-06-10T06:55:05;3.08;;;1.00;;
69240;SDS011;56352;55.750;13.198;2023-06-10T06:57:33;1.38;;;0.73;;
69240;SDS011;56352;55.750;13.198;2023-06-10T06:59:59;2.33;;;0.70;;
69240;SDS011;56352;55.750;13.198;2023-06-10T07:02:32;3.33;;;0.80;;
69240;SDS011;56352;55.750;13.198;2023-06-10T07:05:00;4.53;;;0.90;;
69240;SDS011;56352;55.750;13.198;2023-06-10T07:07:27;1.58;;;0.77;;
69240;SDS011;56352;55.750;13.198;2023-06-10T07:09:54;3.20;;;0.73;;
69240;SDS011;56352;55.750;13.198;2023-06-10T07:12:22;2.00;;;0.80;;
69240;SDS011;56352;55.750;13.198;2023-06-10T07:17:19;2.70;;;1.05;;
69240;SDS011;56352;55.750;13.198;2023-06-10T07:19:53;3.25;;;1.05;;
69240;SDS011;56352;55.750;13.198;2023-06-10T07:22:28;4.63;;;0.98;;
69240;SDS011;56352;55.750;13.198;2023-06-10T07:25:05;1.63;;;0.90;;
69240;SDS011;56352;55.750;13.198;2023-06-10T07:27:32;8.65;;;1.10;;
69240;SDS011;56352;55.750;13.198;2023-06-10T07:30:00;3.15;;;0.82;;
69240;SDS011;56352;55.750;13.198;2023-06-10T07:32:28;4.07;;;1.00;;
69240;SDS011;56352;55.750;13.198;2023-06-10T07:34:58;2.92;;;0.88;;
69240;SDS011;56352;55.750;13.198;2023-06-10T07:37:40;1.63;;;0.90;;
69240;SDS011;56352;55.750;13.198;2023-06-10T07:40:33;1.52;;;0.88;;
69240;SDS011;56352;55.750;13.198;2023-06-10T07:43:10;1.73;;;0.90;;
69240;SDS011;56352;55.750;13.198;2023-06-10T07:45:44;4.27;;;0.97;;
69240;SDS011;56352;55.750;13.198;2023-06-10T07:48:18;1.02;;;0.70;;
69240;SDS011;56352;55.750;13.198;2023-06-10T07:50:46;0.90;;;0.60;;
69240;SDS011;56352;55.750;13.198;2023-06-10T07:53:17;1.95;;;0.77;;
69240;SDS011;56352;55.750;13.198;2023-06-10T07:55:44;1.52;;;0.70;;
69240;SDS011;56352;55.750;13.198;2023-06-10T07:58:14;2.58;;;0.75;;
69240;SDS011;56352;55.750;13.198;2023-06-10T08:00:42;1.48;;;0.98;;
69240;SDS011;56352;55.750;13.198;2023-06-10T08:03:09;3.35;;;0.80;;
69240;SDS011;56352;55.750;13.198;2023-06-10T08:05:37;1.90;;;0.80;;
69240;SDS011;56352;55.750;13.198;2023-06-10T08:08:06;2.67;;;0.82;;
69240;SDS011;56352;55.750;13.198;2023-06-10T08:17:44;3.42;;;0.88;;
69240;SDS011;56352;55.750;13.198;2023-06-10T08:20:12;4.15;;;0.90;;
69240;SDS011;56352;55.750;13.198;2023-06-10T08:22:40;2.63;;;0.80;;
69240;SDS011;56352;55.750;13.198;2023-06-10T08:25:14;3.00;;;0.80;;
69240;SDS011;56352;55.750;13.198;2023-06-10T08:27:42;6.93;;;0.93;;
69240;SDS011;56352;55.750;13.198;2023-06-10T08:30:16;3.13;;;0.93;;
69240;SDS011;56352;55.750;13.198;2023-06-10T08:36:28;4.40;;;1.40;;
69240;SDS011;56352;55.750;13.198;2023-06-10T08:45:52;2.85;;;1.35;;
69240;SDS011;56352;55.750;13.198;2023-06-10T08:48:30;4.60;;;1.02;;
69240;SDS011;56352;55.750;13.198;2023-06-10T08:51:01;4.47;;;1.40;;
69240;SDS011;56352;55.750;13.198;2023-06-10T08:53:30;2.45;;;0.98;;
69240;SDS011;56352;55.750;13.198;2023-06-10T08:56:39;4.38;;;1.05;;
69240;SDS011;56352;55.750;13.198;2023-06-10T08:59:08;4.28;;;1.20;;
69240;SDS011;56352;55.750;13.198;2023-06-10T09:01:44;1.42;;;1.00;;
69240;SDS011;56352;55.750;13.198;2023-06-10T09:04:21;4.55;;;1.17;;
69240;SDS011;56352;55.750;13.198;2023-06-10T09:07:01;2.38;;;1.00;;
69240;SDS011;56352;55.750;13.198;2023-06-10T09:09:39;2.95;;;1.00;;
69240;SDS011;56352;55.750;13.198;2023-06-10T09:12:22;3.45;;;1.02;;
69240;SDS011;56352;55.750;13.198;2023-06-10T09:14:54;2.30;;;1.10;;
69240;SDS011;56352;55.750;13.198;2023-06-10T09:17:24;2.22;;;1.10;;
69240;SDS011;56352;55.750;13.198;2023-06-10T09:19:52;4.53;;;1.20;;
69240;SDS011;56352;55.750;13.198;2023-06-10T09:22:24;6.10;;;1.20;;
69240;SDS011;56352;55.750;13.198;2023-06-10T09:25:05;3.70;;;1.10;;
69240;SDS011;56352;55.750;13.198;2023-06-10T09:27:47;4.80;;;1.40;;
69240;SDS011;56352;55.750;13.198;2023-06-10T09:30:25;3.47;;;1.00;;
69240;SDS011;56352;55.750;13.198;2023-06-10T09:33:02;3.97;;;1.20;;
69240;SDS011;56352;55.750;13.198;2023-06-10T09:35:32;3.05;;;1.20;;
69240;SDS011;56352;55.750;13.198;2023-06-10T09:38:08;2.35;;;1.52;;
69240;SDS011;56352;55.750;13.198;2023-06-10T09:40:52;3.80;;;1.20;;
69240;SDS011;56352;55.750;13.198;2023-06-10T09:43:20;3.85;;;1.20;;
69240;SDS011;56352;55.750;13.198;2023-06-10T09:45:48;2.75;;;1.40;;
69240;SDS011;56352;55.750;13.198;2023-06-10T09:48:19;3.67;;;1.30;;
69240;SDS011;56352;55.750;13.198;2023-06-10T09:59:06;2.83;;;1.20;;
69240;SDS011;56352;55.750;13.198;2023-06-10T10:09:29;3.97;;;1.10;;
69240;SDS011;56352;55.750;13.198;2023-06-10T10:11:59;2.58;;;1.25;;
69240;SDS011;56352;55.750;13.198;2023-06-10T10:14:39;3.70;;;0.90;;
69240;SDS011;56352;55.750;13.198;2023-06-10T10:17:14;3.88;;;1.25;;
69240;SDS011;56352;55.750;13.198;2023-06-10T10:19:48;5.63;;;1.50;;
69240;SDS011;56352;55.750;13.198;2023-06-10T10:22:20;3.97;;;1.48;;
69240;SDS011;56352;55.750;13.198;2023-06-10T10:25:10;3.92;;;1.23;;
69240;SDS011;56352;55.750;13.198;2023-06-10T10:31:20;3.10;;;1.23;;
69240;SDS011;56352;55.750;13.198;2023-06-10T10:33:58;5.05;;;1.70;;
69240;SDS011;56352;55.750;13.198;2023-06-10T10:36:27;4.55;;;1.40;;
69240;SDS011;56352;55.750;13.198;2023-06-10T10:39:00;6.15;;;1.25;;
69240;SDS011;56352;55.750;13.198;2023-06-10T10:41:30;3.38;;;1.25;;
69240;SDS011;56352;55.750;13.198;2023-06-10T10:46:26;5.70;;;2.13;;
69240;SDS011;56352;55.750;13.198;2023-06-10T10:48:58;3.65;;;1.50;;
69240;SDS011;56352;55.750;13.198;2023-06-10T10:51:25;2.95;;;1.42;;
69240;SDS011;56352;55.750;13.198;2023-06-10T10:54:24;5.82;;;1.70;;
69240;SDS011;56352;55.750;13.198;2023-06-10T11:05:02;5.22;;;1.48;;
69240;SDS011;56352;55.750;13.198;2023-06-10T11:07:31;3.15;;;1.75;;
69240;SDS011;56352;55.750;13.198;2023-06-10T11:09:59;3.67;;;1.50;;
69240;SDS011;56352;55.750;13.198;2023-06-10T11:12:39;6.53;;;1.52;;
69240;SDS011;56352;55.750;13.198;2023-06-10T11:15:10;3.05;;;1.88;;
69240;SDS011;56352;55.750;13.198;2023-06-10T11:17:52;5.75;;;2.00;;
69240;SDS011;56352;55.750;13.198;2023-06-10T11:31:26;6.07;;;1.55;;
69240;SDS011;56352;55.750;13.198;2023-06-10T11:33:59;3.03;;;1.38;;
69240;SDS011;56352;55.750;13.198;2023-06-10T11:36:27;4.65;;;1.85;;
69240;SDS011;56352;55.750;13.198;2023-06-10T11:38:55;7.38;;;1.98;;
69240;SDS011;56352;55.750;13.198;2023-06-10T11:41:25;7.32;;;1.77;;
69240;SDS011;56352;55.750;13.198;2023-06-10T11:43:53;5.15;;;1.88;;
69240;SDS011;56352;55.750;13.198;2023-06-10T11:46:23;6.60;;;2.42;;
69240;SDS011;56352;55.750;13.198;2023-06-10T11:48:57;5.03;;;1.80;;
69240;SDS011;56352;55.750;13.198;2023-06-10T11:55:09;5.88;;;1.95;;
69240;SDS011;56352;55.750;13.198;2023-06-10T11:57:59;4.20;;;1.80;;
69240;SDS011;56352;55.750;13.198;2023-06-10T12:04:34;7.10;;;2.05;;
69240;SDS011;56352;55.750;13.198;2023-06-10T12:07:02;4.90;;;1.83;;
69240;SDS011;56352;55.750;13.198;2023-06-10T12:09:29;5.72;;;1.55;;
69240;SDS011;56352;55.750;13.198;2023-06-10T12:12:01;3.17;;;1.70;;
69240;SDS011;56352;55.750;13.198;2023-06-10T12:19:58;2.75;;;1.55;;
69240;SDS011;56352;55.750;13.198;2023-06-10T12:22:25;3.78;;;1.65;;
69240;SDS011;56352;55.750;13.198;2023-06-10T12:25:02;6.80;;;1.83;;
69240;SDS011;56352;55.750;13.198;2023-06-10T12:27:50;3.58;;;1.73;;
69240;SDS011;56352;55.750;13.198;2023-06-10T12:30:40;5.13;;;1.80;;
69240;SDS011;56352;55.750;13.198;2023-06-10T12:36:49;4.13;;;1.63;;
69240;SDS011;56352;55.750;13.198;2023-06-10T12:43:37;7.13;;;1.70;;
69240;SDS011;56352;55.750;13.198;2023-06-10T12:46:10;4.55;;;1.65;;
69240;SDS011;56352;55.750;13.198;2023-06-10T12:48:48;4.40;;;1.73;;
69240;SDS011;56352;55.750;13.198;2023-06-10T12:51:15;3.63;;;1.52;;
69240;SDS011;56352;55.750;13.198;2023-06-10T12:53:43;8.02;;;1.77;;
69240;SDS011;56352;55.750;13.198;2023-06-10T12:56:23;3.63;;;1.42;;
69240;SDS011;56352;55.750;13.198;2023-06-10T12:58:50;5.13;;;1.60;;
69240;SDS011;56352;55.750;13.198;2023-06-10T13:04:46;3.55;;;1.50;;
69240;SDS011;56352;55.750;13.198;2023-06-10T13:07:24;6.68;;;1.60;;
69240;SDS011;56352;55.750;13.198;2023-06-10T13:13:26;3.20;;;1.30;;
69240;SDS011;56352;55.750;13.198;2023-06-10T13:18:59;3.45;;;1.15;;
69240;SDS011;56352;55.750;13.198;2023-06-10T13:21:29;6.05;;;1.67;;
69240;SDS011;56352;55.750;13.198;2023-06-10T13:24:11;5.10;;;1.60;;
69240;SDS011;56352;55.750;13.198;2023-06-10T13:26:44;4.30;;;1.83;;
69240;SDS011;56352;55.750;13.198;2023-06-10T13:29:12;3.38;;;1.63;;
69240;SDS011;56352;55.750;13.198;2023-06-10T13:35:37;2.22;;;1.33;;
69240;SDS011;56352;55.750;13.198;2023-06-10T13:38:05;3.33;;;1.42;;
69240;SDS011;56352;55.750;13.198;2023-06-10T13:40:39;1.80;;;1.17;;
69240;SDS011;56352;55.750;13.198;2023-06-10T13:43:14;5.95;;;1.55;;
69240;SDS011;56352;55.750;13.198;2023-06-10T13:45:42;2.97;;;1.20;;
69240;SDS011;56352;55.750;13.198;2023-06-10T13:48:09;2.70;;;1.30;;
69240;SDS011;56352;55.750;13.198;2023-06-10T13:50:50;3.83;;;1.20;;
69240;SDS011;56352;55.750;13.198;2023-06-10T13:53:17;5.77;;;1.27;;
69240;SDS011;56352;55.750;13.198;2023-06-10T13:58:13;4.97;;;1.17;;
69240;SDS011;56352;55.750;13.198;2023-06-10T14:00:55;3.88;;;1.23;;
69240;SDS011;56352;55.750;13.198;2023-06-10T14:06:19;2.35;;;1.40;;
69240;SDS011;56352;55.750;13.198;2023-06-10T14:09:00;6.35;;;1.40;;
69240;SDS011;56352;55.750;13.198;2023-06-10T14:11:28;2.55;;;1.55;;
69240;SDS011;56352;55.750;13.198;2023-06-10T14:13:59;2.72;;;1.20;;
69240;SDS011;56352;55.750;13.198;2023-06-10T14:16:35;1.80;;;1.00;;
69240;SDS011;56352;55.750;13.198;2023-06-10T14:19:09;2.40;;;1.20;;
69240;SDS011;56352;55.750;13.198;2023-06-10T14:21:37;1.92;;;1.20;;
69240;SDS011;56352;55.750;13.198;2023-06-10T14:24:07;2.83;;;1.38;;
69240;SDS011;56352;55.750;13.198;2023-06-10T14:26:50;4.38;;;1.02;;
69240;SDS011;56352;55.750;13.198;2023-06-10T14:29:21;2.22;;;1.15;;
69240;SDS011;56352;55.750;13.198;2023-06-10T14:31:56;6.97;;;1.13;;
69240;SDS011;56352;55.750;13.198;2023-06-10T14:34:23;3.30;;;1.10;;
69240;SDS011;56352;55.750;13.198;2023-06-10T14:36:59;3.05;;;1.25;;
69240;SDS011;56352;55.750;13.198;2023-06-10T14:39:33;5.53;;;1.37;;
69240;SDS011;56352;55.750;13.198;2023-06-10T14:42:05;3.58;;;1.23;;
69240;SDS011;56352;55.750;13.198;2023-06-10T14:47:02;3.13;;;1.30;;
69240;SDS011;56352;55.750;13.198;2023-06-10T14:49:32;3.22;;;1.30;;
69240;SDS011;56352;55.750;13.198;2023-06-10T14:51:59;2.67;;;0.97;;
69240;SDS011;56352;55.750;13.198;2023-06-10T14:54:26;2.53;;;0.90;;
69240;SDS011;56352;55.750;13.198;2023-06-10T14:56:57;2.42;;;0.90;;
69240;SDS011;56352;55.750;13.198;2023-06-10T14:59:25;1.60;;;1.10;;
69240;SDS011;56352;55.750;13.198;2023-06-10T15:01:55;5.27;;;1.23;;
69240;SDS011;56352;55.750;13.198;2023-06-10T15:04:35;3.80;;;1.10;;
69240;SDS011;56352;55.750;13.198;2023-06-10T15:07:20;4.47;;;1.27;;
69240;SDS011;56352;55.750;13.198;2023-06-10T15:10:02;2.63;;;0.80;;
69240;SDS011;56352;55.750;13.198;2023-06-10T15:12:48;4.65;;;1.17;;
69240;SDS011;56352;55.750;13.198;2023-06-10T15:15:23;2.55;;;0.90;;
69240;SDS011;56352;55.750;13.198;2023-06-10T15:17:56;2.13;;;0.90;;
69240;SDS011;56352;55.750;13.198;2023-06-10T15:20:27;1.70;;;0.90;;
69240;SDS011;56352;55.750;13.198;2023-06-10T15:22:57;2.20;;;0.80;;
69240;SDS011;56352;55.750;13.198;2023-06-10T15:25:24;2.42;;;1.00;;
69240;SDS011;56352;55.750;13.198;2023-06-10T15:27:57;2.78;;;1.00;;
69240;SDS011;56352;55.750;13.198;2023-06-10T15:33:10;2.33;;;1.13;;
69240;SDS011;56352;55.750;13.198;2023-06-10T15:35:41;3.50;;;1.00;;
69240;SDS011;56352;55.750;13.198;2023-06-10T15:38:20;1.85;;;1.00;;
69240;SDS011;56352;55.750;13.198;2023-06-10T15:40:47;1.48;;;0.80;;
69240;SDS011;56352;55.750;13.198;2023-06-10T15:43:14;4.55;;;1.10;;
69240;SDS011;56352;55.750;13.198;2023-06-10T15:45:41;3.00;;;1.00;;
69240;SDS011;56352;55.750;13.198;2023-06-10T15:48:09;2.10;;;1.00;;
69240;SDS011;56352;55.750;13.198;2023-06-10T15:50:35;5.00;;;0.90;;
69240;SDS011;56352;55.750;13.198;2023-06-10T15:53:09;2.60;;;1.25;;
69240;SDS011;56352;55.750;13.198;2023-06-10T15:55:50;2.05;;;0.88;;
69240;SDS011;56352;55.750;13.198;2023-06-10T15:58:18;2.60;;;1.00;;
69240;SDS011;56352;55.750;13.198;2023-06-10T16:00:57;3.38;;;0.90;;
69240;SDS011;56352;55.750;13.198;2023-06-10T16:10:31;1.08;;;0.98;;
69240;SDS011;56352;55.750;13.198;2023-06-10T16:16:43;0.70;;;0.70;;
69240;SDS011;56352;55.750;13.198;2023-06-10T16:19:12;1.63;;;0.60;;
69240;SDS011;56352;55.750;13.198;2023-06-10T16:25:27;2.50;;;0.77;;
69240;SDS011;56352;55.750;13.198;2023-06-10T16:28:00;2.65;;;1.00;;
69240;SDS011;56352;55.750;13.198;2023-06-10T16:30:36;3.92;;;0.90;;
69240;SDS011;56352;55.750;13.198;2023-06-10T16:33:08;0.85;;;0.70;;
69240;SDS011;56352;55.750;13.198;2023-06-10T16:36:00;3.58;;;0.80;;
69240;SDS011;56352;55.750;13.198;2023-06-10T16:38:29;2.58;;;0.80;;
69240;SDS011;56352;55.750;13.198;2023-06-10T16:41:02;1.65;;;0.70;;
69240;SDS011;56352;55.750;13.198;2023-06-10T16:43:39;1.60;;;0.80;;
69240;SDS011;56352;55.750;13.198;2023-06-10T16:46:13;1.60;;;0.70;;
69240;SDS011;56352;55.750;13.198;2023-06-10T16:49:15;1.17;;;0.70;;
69240;SDS011;56352;55.750;13.198;2023-06-10T16:51:44;2.55;;;0.73;;
69240;SDS011;56352;55.750;13.198;2023-06-10T16:54:41;1.60;;;0.70;;
69240;SDS011;56352;55.750;13.198;2023-06-10T17:04:09;2.17;;;0.82;;
69240;SDS011;56352;55.750;13.198;2023-06-10T17:06:36;3.20;;;0.80;;
69240;SDS011;56352;55.750;13.198;2023-06-10T17:09:02;1.80;;;0.90;;
69240;SDS011;56352;55.750;13.198;2023-06-10T17:11:29;2.63;;;0.90;;
69240;SDS011;56352;55.750;13.198;2023-06-10T17:13:58;2.70;;;0.90;;
69240;SDS011;56352;55.750;13.198;2023-06-10T17:16:24;5.45;;;0.93;;
69240;SDS011;56352;55.750;13.198;2023-06-10T17:18:51;3.33;;;0.90;;
69240;SDS011;56352;55.750;13.198;2023-06-10T17:21:18;3.28;;;0.95;;
69240;SDS011;56352;55.750;13.198;2023-06-10T17:23:45;1.38;;;0.93;;
69240;SDS011;56352;55.750;13.198;2023-06-10T17:26:12;3.75;;;1.10;;
69240;SDS011;56352;55.750;13.198;2023-06-10T17:28:38;1.52;;;0.85;;
69240;SDS011;56352;55.750;13.198;2023-06-10T17:31:05;2.30;;;1.08;;
69240;SDS011;56352;55.750;13.198;2023-06-10T17:33:32;2.85;;;1.00;;
69240;SDS011;56352;55.750;13.198;2023-06-10T17:35:59;3.03;;;0.90;;
69240;SDS011;56352;55.750;13.198;2023-06-10T17:38:26;2.05;;;1.10;;
69240;SDS011;56352;55.750;13.198;2023-06-10T17:40:52;2.75;;;1.02;;
69240;SDS011;56352;55.750;13.198;2023-06-10T17:43:19;1.45;;;0.95;;
69240;SDS011;56352;55.750;13.198;2023-06-10T17:45:46;4.10;;;1.20;;
69240;SDS011;56352;55.750;13.198;2023-06-10T17:48:17;4.28;;;1.00;;
69240;SDS011;56352;55.750;13.198;2023-06-10T17:50:47;2.53;;;1.85;;
69240;SDS011;56352;55.750;13.198;2023-06-10T17:53:14;1.48;;;1.00;;
69240;SDS011;56352;55.750;13.198;2023-06-10T17:55:41;4.57;;;1.20;;
69240;SDS011;56352;55.750;13.198;2023-06-10T17:58:08;2.05;;;0.93;;
69240;SDS011;56352;55.750;13.198;2023-06-10T18:00:34;2.75;;;1.20;;
69240;SDS011;56352;55.750;13.198;2023-06-10T18:03:01;1.02;;;0.90;;
69240;SDS011;56352;55.750;13.198;2023-06-10T18:05:28;3.17;;;1.30;;
69240;SDS011;56352;55.750;13.198;2023-06-10T18:07:54;3.85;;;1.25;;
69240;SDS011;56352;55.750;13.198;2023-06-10T18:10:23;2.97;;;1.08;;